Time;durP1;ratioP1;P1;durP2;ratioP2;P2;SDS_P1;SDS_P2;PMS_P1;PMS_P2;Temp;Humidity;BMP_temperature;BMP_pressure;BME280_temperature;BME280_humidity;BME280_pressure;Samples;Min_cycle;Max_cycle;Signal;HPM_P1;HPM_P2
2022/02/08 10:12:10;;;;;;;12.40;11.60;;;12.00;91.00;;;;;;5127505;27;20647;-75
2022/02/08 10:14:54;;;;;;;10.63;9.97;;;12.90;90.00;;;;;;5127546;27;20455;-75
2022/02/08 10:22:55;;;;;;;12.30;11.43;;;14.10;87.00;;;;;;5127837;27;20428;-75
2022/02/08 10:25:34;;;;;;;13.03;12.00;;;14.40;85.10;;;;;;5127396;27;20437;-75
2022/02/08 10:28:11;;;;;;;12.90;12.10;;;15.60;82.80;;;;;;5127277;27;21022;-75
2022/02/08 10:31:02;;;;;;;12.37;11.50;;;16.60;80.70;;;;;;5127215;27;20488;-75
2022/02/08 10:38:59;;;;;;;12.30;11.50;;;16.30;80.20;;;;;;5127674;27;20420;-76
2022/02/08 10:41:25;;;;;;;13.20;12.23;;;15.80;79.60;;;;;;5127465;27;20436;-75
2022/02/08 10:44:02;;;;;;;12.30;11.60;;;16.30;80.40;;;;;;5127045;28;20502;-76
2022/02/08 10:46:29;;;;;;;13.10;12.13;;;17.80;75.10;;;;;;5127263;27;20444;-75
2022/02/08 10:49:03;;;;;;;13.73;12.60;;;19.20;71.50;;;;;;5127104;27;20440;-76
2022/02/08 10:51:35;;;;;;;11.87;11.27;;;18.40;70.00;;;;;;5126901;27;20488;-75
2022/02/08 10:54:08;;;;;;;12.77;11.77;;;18.00;71.10;;;;;;5126968;27;20445;-76
2022/02/08 10:56:38;;;;;;;12.90;12.20;;;17.60;71.70;;;;;;5127030;27;20456;-76
2022/02/08 10:59:16;;;;;;;12.80;12.00;;;17.00;71.20;;;;;;5126767;27;20716;-75
2022/02/08 11:01:51;;;;;;;12.67;11.53;;;15.70;74.50;;;;;;5127001;27;20468;-76
2022/02/08 11:04:25;;;;;;;11.73;11.10;;;14.70;77.40;;;;;;5126731;27;20444;-75
2022/02/08 11:06:59;;;;;;;11.83;11.20;;;14.50;80.50;;;;;;5126625;27;20966;-75
2022/02/08 11:09:38;;;;;;;12.10;11.50;;;14.70;81.50;;;;;;5126939;27;20452;-75
2022/02/08 11:12:15;;;;;;;12.53;11.77;;;16.40;78.10;;;;;;5118603;27;20466;-76
2022/02/08 11:15:02;;;;;;;13.83;12.70;;;17.90;72.60;;;;;;5113275;28;20960;-76
2022/02/08 11:20:27;;;;;;;14.20;13.10;;;20.10;68.00;;;;;;5109038;28;20514;-76
2022/02/08 11:22:58;;;;;;;13.53;12.60;;;22.00;61.80;;;;;;5112727;28;20476;-76
2022/02/08 11:25:29;;;;;;;13.77;12.87;;;22.30;58.60;;;;;;5112790;28;20532;-76
2022/02/08 11:28:08;;;;;;;12.67;12.07;;;20.70;59.00;;;;;;5113042;28;20544;-76
2022/02/08 11:30:44;;;;;;;11.73;10.93;;;18.10;64.80;;;;;;5112511;28;20472;-76
2022/02/08 11:44:47;;;;;;;11.07;10.57;;;15.30;78.00;;;;;;5088781;27;20474;-76
2022/02/08 11:50:24;;;;;;;11.20;10.60;;;15.40;78.10;;;;;;5101158;27;20627;-75
2022/02/08 11:53:15;;;;;;;11.70;11.00;;;14.60;81.10;;;;;;5112104;28;20445;-75
2022/02/08 11:58:54;;;;;;;11.63;10.83;;;14.40;82.90;;;;;;5087005;27;20569;-76
2022/02/08 12:01:37;;;;;;;10.87;10.40;;;14.80;84.60;;;;;;5113917;28;20449;-77
2022/02/08 12:04:29;;;;;;;11.30;10.67;;;15.10;83.10;;;;;;5111977;28;20541;-76
2022/02/08 12:07:13;;;;;;;11.07;10.47;;;15.90;82.60;;;;;;5112243;28;20837;-76
2022/02/08 12:09:47;;;;;;;10.43;9.93;;;16.30;81.10;;;;;;5111992;28;20532;-76
2022/02/08 12:31:54;;;;;;;10.50;9.80;;;15.00;91.60;;;;;;5111493;28;20504;-76
2022/02/08 12:54:08;;;;;;;9.43;8.93;;;15.90;92.00;;;;;;5090818;28;20480;-76
2022/02/08 12:56:44;;;;;;;10.00;9.60;;;15.80;91.70;;;;;;5090569;28;20465;-76
2022/02/08 12:59:26;;;;;;;10.00;9.20;;;15.40;92.30;;;;;;5090684;28;20511;-74
2022/02/08 13:02:14;;;;;;;10.53;9.93;;;15.10;92.60;;;;;;5090441;28;20462;-76
2022/02/08 13:04:55;;;;;;;11.17;10.57;;;14.90;92.80;;;;;;5090720;28;20442;-76
2022/02/08 14:03:33;;;;;;;9.03;8.60;;;12.50;99.90;;;;;;5091098;28;21025;-75
2022/02/08 14:06:13;;;;;;;9.40;9.00;;;12.70;99.90;;;;;;5091228;28;20963;-75
2022/02/08 14:09:07;;;;;;;9.90;9.50;;;12.80;99.80;;;;;;5090065;28;20461;-74
2022/02/08 14:14:36;;;;;;;10.20;9.70;;;12.50;99.90;;;;;;5089873;28;20418;-74
2022/02/08 14:17:32;;;;;;;10.00;9.63;;;12.40;99.90;;;;;;5089430;28;20456;-74
2022/02/08 14:23:07;;;;;;;8.67;8.27;;;12.40;99.90;;;;;;5089683;28;20418;-75
2022/02/08 14:25:45;;;;;;;9.87;9.27;;;12.60;99.90;;;;;;5089537;28;20540;-75
2022/02/08 14:31:04;;;;;;;9.33;8.93;;;12.90;99.90;;;;;;5089686;28;20479;-74
2022/02/08 14:33:52;;;;;;;9.37;8.70;;;12.70;99.90;;;;;;5089453;28;20453;-74
2022/02/08 14:36:32;;;;;;;8.50;8.00;;;12.50;99.90;;;;;;5089354;28;20543;-74
2022/02/08 15:07:00;;;;;;;9.07;8.67;;;11.90;99.90;;;;;;5093195;28;20425;-74
2022/02/08 15:09:31;;;;;;;8.53;8.13;;;11.80;99.90;;;;;;5093005;28;20531;-74
2022/02/08 15:12:09;;;;;;;9.50;8.80;;;11.80;99.90;;;;;;5092748;28;20592;-74
2022/02/08 15:14:44;;;;;;;8.33;8.03;;;11.80;99.90;;;;;;5092765;28;20454;-75
2022/02/08 15:17:11;;;;;;;10.50;9.70;;;11.80;99.90;;;;;;5092710;28;20858;-75
2022/02/08 15:19:40;;;;;;;8.97;8.37;;;11.80;99.90;;;;;;5092538;28;20446;-74
2022/02/08 15:22:08;;;;;;;9.53;9.03;;;11.80;99.90;;;;;;5092418;28;20461;-74
2022/02/08 15:24:36;;;;;;;11.10;10.13;;;11.80;99.90;;;;;;5092415;28;20948;-74
2022/02/08 15:27:03;;;;;;;11.83;10.90;;;11.80;99.90;;;;;;5092277;28;20458;-74
2022/02/08 15:29:32;;;;;;;10.50;9.60;;;11.80;99.90;;;;;;5092528;28;20453;-74
2022/02/08 15:32:01;;;;;;;9.67;9.17;;;11.80;99.90;;;;;;5092447;28;20490;-74
2022/02/08 15:34:28;;;;;;;9.10;8.40;;;11.70;99.90;;;;;;5092625;28;20545;-73
2022/02/08 15:36:55;;;;;;;8.90;8.30;;;11.70;99.90;;;;;;5092215;28;20457;-75
2022/02/08 15:39:23;;;;;;;8.97;8.37;;;11.60;99.90;;;;;;5092267;28;20453;-73
2022/02/08 15:41:50;;;;;;;7.13;6.83;;;11.40;99.90;;;;;;5092303;28;20444;-74
2022/02/08 15:44:21;;;;;;;8.90;8.40;;;11.30;99.90;;;;;;5091953;28;20526;-74
2022/02/08 15:46:48;;;;;;;9.23;8.73;;;11.30;99.90;;;;;;5091826;28;20507;-74
2022/02/08 15:49:15;;;;;;;8.97;8.40;;;11.30;99.90;;;;;;5092206;28;20877;-73
2022/02/08 15:51:45;;;;;;;8.63;8.23;;;11.30;99.90;;;;;;5092172;28;20487;-75
2022/02/08 15:54:21;;;;;;;8.47;7.87;;;11.20;99.90;;;;;;5092025;28;20499;-74
2022/02/08 16:05:21;;;;;;;9.40;9.00;;;10.80;99.90;;;;;;5091579;28;20426;-74
2022/02/08 16:07:53;;;;;;;10.23;9.50;;;10.60;99.90;;;;;;5091325;28;20446;-74
2022/02/08 16:10:26;;;;;;;9.00;8.50;;;10.50;99.90;;;;;;5091258;28;20513;-73
2022/02/08 16:13:14;;;;;;;10.17;9.67;;;10.50;99.90;;;;;;5091458;28;20928;-75
2022/02/08 16:15:55;;;;;;;9.70;9.10;;;10.40;99.90;;;;;;5091636;28;20446;-76
2022/02/08 16:18:29;;;;;;;10.43;9.83;;;10.40;99.90;;;;;;5091102;28;20450;-75
2022/02/08 16:21:09;;;;;;;10.13;9.50;;;10.40;99.90;;;;;;5091475;28;20554;-74
2022/02/08 16:24:00;;;;;;;10.33;9.60;;;10.50;99.90;;;;;;5091091;28;20497;-75
2022/02/08 16:26:46;;;;;;;10.03;9.53;;;10.40;99.90;;;;;;5091343;28;20454;-75
2022/02/08 16:29:54;;;;;;;10.67;9.97;;;10.40;99.90;;;;;;5091428;28;20454;-74
2022/02/08 16:32:43;;;;;;;9.50;9.07;;;10.40;99.90;;;;;;5090616;28;20528;-76
2022/02/08 16:46:43;;;;;;;10.17;9.33;;;10.40;99.90;;;;;;5047927;28;20443;-74
2022/02/08 16:49:26;;;;;;;8.40;8.00;;;10.40;99.90;;;;;;5087392;28;20823;-74
2022/02/08 16:52:38;;;;;;;8.50;8.20;;;10.40;99.90;;;;;;5090588;28;20499;-74
2022/02/08 16:55:16;;;;;;;9.97;9.57;;;10.40;99.90;;;;;;5090418;28;20438;-74
2022/02/08 16:57:55;;;;;;;9.20;8.43;;;10.40;99.90;;;;;;5090772;28;20792;-74
2022/02/08 17:00:25;;;;;;;10.50;9.47;;;10.40;99.90;;;;;;5090417;28;20458;-75
2022/02/08 17:02:58;;;;;;;9.13;8.70;;;10.40;99.90;;;;;;5090358;28;20472;-75
2022/02/08 17:05:25;;;;;;;9.87;9.30;;;10.30;99.90;;;;;;5091073;28;20924;-74
2022/02/08 17:07:51;;;;;;;14.20;9.80;;;10.30;99.90;;;;;;5090386;28;20455;-74
2022/02/08 17:10:30;;;;;;;10.07;9.27;;;10.40;99.90;;;;;;5089534;28;20485;-74
2022/02/08 17:13:06;;;;;;;9.33;8.73;;;10.40;99.90;;;;;;5090263;28;20998;-73
2022/02/08 17:15:46;;;;;;;9.20;8.70;;;10.40;99.90;;;;;;5090050;28;20461;-74
2022/02/08 17:18:46;;;;;;;9.83;9.43;;;10.40;99.90;;;;;;5090244;28;20449;-74
2022/02/08 17:35:35;;;;;;;10.93;10.23;;;10.30;99.90;;;;;;5089985;28;20475;-75
2022/02/08 17:46:12;;;;;;;11.03;10.13;;;10.40;99.90;;;;;;5050394;28;20444;-75
2022/02/08 17:48:39;;;;;;;9.50;9.10;;;10.40;99.90;;;;;;5089859;28;20798;-75
2022/02/08 17:51:07;;;;;;;9.60;9.10;;;10.30;99.90;;;;;;5089514;28;20789;-75
2022/02/08 17:53:34;;;;;;;9.57;9.00;;;10.30;99.90;;;;;;5089667;28;20837;-75
2022/02/08 17:56:00;;;;;;;9.13;8.70;;;10.30;99.90;;;;;;5089839;28;20458;-74
2022/02/08 17:58:27;;;;;;;10.43;9.43;;;10.30;99.90;;;;;;5089861;28;20450;-74
